Terminal Aerodrome Forecast
Issued by NWS

Home | Current Version | Previous Version | Text Only | Print | Product List | Glossary On
Versions: 1 2 3 4 5 6 7 8 9 10 11 12 13 14 15 16 17 18 19 20
000
FTUS43 KBIS 281832 AAA
TAFJMS
TAF AMD
KJMS 281832Z 2819/2918 34016G23KT P6SM BKN035
     FM282100 32014KT P6SM SCT035 SCT150
     FM290300 32005KT P6SM FEW045 FEW250
     FM291200 00000KT P6SM BKN060
     FM291600 28006KT P6SM BKN100=

USA.gov is the U.S. government's official web portal to all federal, state and local government web resources and services.